Nicht eingeloggt | Einloggen
Öffentliche Ansicht
Hier können Sie sich die Waage ansehen. Nutzen Sie auch die verschiedenen Auswertungsmöglichkeiten, die Ihnen zur Verfügung stehen. Sie können verschiedene Berichtarten auswählen und die Zeiträume entsprechend anpassen.
Waagenübersicht
Bienenstockwaage
Nr. 3138
Karl-Heinz Raddatz
Standort:
Tracht:
Bemerkung:
Waagenauswahl

1. Waage auswählen:

Bienenstockwaage

2. Zeitraum wählen:




3. Datum bestimmen:

Diagramm
Anpassen
Neu laden
Durchgeführte Arbeiten, Korrekturen, Notizen
Beginn Ende Bemerkung
Keine Daten
-
-
Tabelle
Tag Gewicht Diff. min max Feuchte Regen Temp. 2
20.10.2017 33,88 kg +0,24 kg 11,9 °C 12,8 °C 14,2 °C 99,9 % 3,0 l 13,4 °C
21.10.2017 34,12 kg +0,07 kg 11,1 °C 11,9 °C 12,6 °C 99,9 % 4,0 l 12,5 °C
22.10.2017 34,19 kg +0,07 kg 8,4 °C 10,0 °C 11,1 °C 99,9 % 4,5 l 10,5 °C
23.10.2017 34,26 kg +0,04 kg 10,1 °C 10,9 °C 12,4 °C 99,9 % 6,0 l 11,6 °C
24.10.2017 34,30 kg +0,16 kg 10,4 °C 11,9 °C 14,4 °C 99,9 % 2,0 l 12,5 °C
25.10.2017 34,46 kg -0,31 kg 11,3 °C 13,2 °C 14,4 °C 99,9 % 2,0 l 13,7 °C
26.10.2017 34,15 kg -0,11 kg 10,8 °C 12,2 °C 13,8 °C 99,9 % 0,5 l 12,8 °C
27.10.2017 34,04 kg +0,04 kg 9,7 °C 11,0 °C 13,3 °C 98,4 % 1,0 l 11,7 °C
28.10.2017 34,08 kg +0,19 kg 10,2 °C 11,0 °C 11,8 °C 99,9 % 2,0 l 11,5 °C
29.10.2017 34,27 kg -0,66 kg 6,3 °C 8,9 °C 11,4 °C 89,5 % 3,0 l 9,7 °C
30.10.2017 33,61 kg -0,07 kg 2,7 °C 6,6 °C 10,4 °C 87,7 % 0,0 l 7,7 °C
31.10.2017 33,54 kg +0,42 kg 6,3 °C 8,5 °C 11,0 °C 99,8 % 2,0 l 9,6 °C
01.11.2017 33,96 kg +0,00 kg 10,5 °C 11,8 °C 12,4 °C 99,9 % 3,5 l 12,3 °C
02.11.2017 33,96 kg -0,33 kg 8,2 °C 10,7 °C 12,6 °C 99,6 % 2,0 l 11,3 °C
03.11.2017 33,63 kg +0,10 kg 6,0 °C 8,3 °C 9,8 °C 99,9 % 0,5 l 9,2 °C
04.11.2017 33,73 kg -0,13 kg 8,4 °C 9,5 °C 10,9 °C 99,9 % 0,5 l 10,0 °C
05.11.2017 33,60 kg -0,08 kg 5,9 °C 9,1 °C 11,1 °C 99,9 % 0,0 l 9,6 °C
06.11.2017 33,52 kg -0,17 kg 2,4 °C 5,8 °C 10,3 °C 97,2 % 0,0 l 6,5 °C
07.11.2017 33,35 kg -0,02 kg 1,7 °C 4,6 °C 9,1 °C 98,9 % 0,0 l 5,4 °C
08.11.2017 33,33 kg -0,02 kg 3,6 °C 6,6 °C 9,1 °C 99,9 % 0,0 l 7,4 °C
09.11.2017 33,31 kg +0,26 kg 5,7 °C 7,8 °C 9,4 °C 99,9 % 2,0 l 8,3 °C
10.11.2017 33,57 kg -0,07 kg 5,0 °C 6,7 °C 7,9 °C 99,8 % 8,0 l 7,1 °C
11.11.2017 33,50 kg +0,13 kg 3,7 °C 5,0 °C 6,9 °C 99,9 % 2,5 l 5,5 °C
12.11.2017 33,63 kg +0,02 kg 2,7 °C 4,9 °C 5,8 °C 99,9 % 4,0 l 5,5 °C
13.11.2017 33,65 kg -0,23 kg 0,0 °C 3,1 °C 6,9 °C 99,9 % 0,0 l 3,8 °C
14.11.2017 33,42 kg +0,28 kg 1,6 °C 5,5 °C 8,6 °C 99,9 % 2,5 l 6,2 °C
15.11.2017 33,70 kg -0,24 kg 3,9 °C 7,4 °C 10,5 °C 99,9 % 0,0 l 8,1 °C
16.11.2017 33,46 kg +0,19 kg 4,1 °C 7,7 °C 9,0 °C 99,9 % 3,0 l 8,5 °C
17.11.2017 33,65 kg -0,13 kg 4,0 °C 5,9 °C 7,6 °C 99,9 % 1,0 l 6,5 °C
18.11.2017 33,52 kg +0,17 kg 4,9 °C 5,7 °C 7,0 °C 99,9 % 5,5 l 6,2 °C